Time;durP1;ratioP1;P1;durP2;ratioP2;P2;SDS_P1;SDS_P2;PMS_P1;PMS_P2;Temp;Humidity;BMP_temperature;BMP_pressure;BME280_temperature;BME280_humidity;BME280_pressure;Samples;Min_cycle;Max_cycle;Signal;HPM_P1;HPM_P2
2021/01/25 00:02:18;;;;;;;67.85;9.05;;;-0.60;1.00;;;;;;5074132;28;20205;-67
2021/01/25 00:04:44;;;;;;;68.00;10.05;;;-0.50;1.00;;;;;;5073927;28;20229;-67
2021/01/25 00:07:10;;;;;;;64.28;9.45;;;-0.50;1.00;;;;;;5074238;28;20236;-67
2021/01/25 00:09:37;;;;;;;63.50;9.27;;;-0.40;1.00;;;;;;5074048;28;20205;-68
2021/01/25 00:12:04;;;;;;;62.03;8.20;;;-0.40;1.00;;;;;;5074156;28;20205;-68
2021/01/25 00:14:30;;;;;;;64.05;9.07;;;-0.30;1.00;;;;;;5072707;28;20833;-68
2021/01/25 00:16:57;;;;;;;61.75;8.30;;;-0.40;1.00;;;;;;5073805;28;20216;-68
2021/01/25 00:19:23;;;;;;;62.45;8.50;;;-0.30;1.00;;;;;;5073948;28;20208;-68
2021/01/25 00:21:50;;;;;;;61.78;8.15;;;-0.30;1.00;;;;;;5073982;28;20207;-68
2021/01/25 00:24:16;;;;;;;64.47;9.05;;;-0.30;1.00;;;;;;5073895;28;20229;-68
2021/01/25 00:26:42;;;;;;;63.20;9.32;;;-0.30;1.00;;;;;;5073733;28;20296;-68
2021/01/25 00:29:09;;;;;;;69.90;10.77;;;-0.30;1.00;;;;;;5073902;28;20236;-67
2021/01/25 00:31:35;;;;;;;67.80;11.30;;;-0.20;1.00;;;;;;5072854;28;20209;-68
2021/01/25 00:34:02;;;;;;;64.38;8.93;;;-0.20;1.00;;;;;;5073322;28;20236;-68
2021/01/25 00:36:28;;;;;;;63.92;7.85;;;-0.20;1.00;;;;;;5073777;28;20688;-67
2021/01/25 00:38:55;;;;;;;61.42;7.18;;;-0.20;1.00;;;;;;5073421;28;20235;-67
2021/01/25 00:41:21;;;;;;;63.97;8.30;;;-0.10;1.00;;;;;;5073954;28;20205;-67
2021/01/25 00:43:47;;;;;;;67.18;8.45;;;-0.10;1.00;;;;;;5073215;28;20316;-67
2021/01/25 00:46:14;;;;;;;61.35;7.50;;;-0.20;1.00;;;;;;5072135;28;20665;-67
2021/01/25 00:48:40;;;;;;;60.97;8.55;;;-0.20;1.00;;;;;;5073109;28;20668;-67
2021/01/25 00:51:08;;;;;;;60.45;7.70;;;-0.20;1.00;;;;;;5073184;28;20768;-67
2021/01/25 00:53:34;;;;;;;63.38;7.45;;;-0.30;1.00;;;;;;5073177;28;20233;-67
2021/01/25 00:56:00;;;;;;;66.57;8.70;;;-0.30;1.00;;;;;;5073210;28;20204;-67
2021/01/25 00:58:26;;;;;;;64.78;7.85;;;-0.40;1.00;;;;;;5073018;28;20227;-67
2021/01/25 01:00:53;;;;;;;60.13;7.50;;;-0.40;1.00;;;;;;5072909;28;20265;-67
2021/01/25 01:03:19;;;;;;;61.90;7.55;;;-0.40;1.00;;;;;;5073037;28;20315;-67
2021/01/25 01:05:45;;;;;;;61.50;7.28;;;-0.40;1.00;;;;;;5073111;28;20291;-67
2021/01/25 01:08:13;;;;;;;62.55;7.40;;;-0.40;1.00;;;;;;5073050;28;20434;-67
2021/01/25 01:10:39;;;;;;;62.63;7.10;;;-0.30;1.00;;;;;;5073085;28;20593;-67
2021/01/25 01:13:05;;;;;;;61.35;7.30;;;-0.30;1.00;;;;;;5072664;28;20229;-67
2021/01/25 01:15:32;;;;;;;61.25;7.30;;;-0.30;1.00;;;;;;5072472;28;20209;-67
2021/01/25 01:17:58;;;;;;;63.33;6.80;;;-0.20;1.00;;;;;;5071711;28;20283;-68
2021/01/25 01:20:25;;;;;;;63.13;7.15;;;-0.20;1.00;;;;;;5072823;28;20208;-68
2021/01/25 01:22:51;;;;;;;62.22;7.45;;;-0.20;1.00;;;;;;5072475;28;20227;-68
2021/01/25 01:25:18;;;;;;;61.75;8.25;;;-0.20;1.00;;;;;;5072878;28;20201;-68
2021/01/25 01:27:44;;;;;;;59.95;7.28;;;-0.10;1.00;;;;;;5073117;28;20204;-68
2021/01/25 01:30:12;;;;;;;62.65;7.30;;;-0.10;1.00;;;;;;5073143;28;20251;-68
2021/01/25 01:32:39;;;;;;;61.20;7.05;;;-0.10;1.00;;;;;;5072991;28;20628;-68
2021/01/25 01:35:06;;;;;;;62.08;7.30;;;-0.10;1.00;;;;;;5072878;28;20201;-68
2021/01/25 01:37:33;;;;;;;59.83;6.85;;;0.00;1.00;;;;;;5072781;28;20225;-68
2021/01/25 01:39:59;;;;;;;59.65;6.60;;;0.00;1.00;;;;;;5072577;28;20251;-68
2021/01/25 01:42:27;;;;;;;61.30;7.82;;;0.00;1.00;;;;;;5072267;28;20205;-68
2021/01/25 01:44:54;;;;;;;60.95;6.75;;;-0.10;1.00;;;;;;5072574;28;20232;-67
2021/01/25 01:47:21;;;;;;;61.15;6.47;;;-0.10;1.00;;;;;;5071352;28;20208;-68
2021/01/25 01:49:49;;;;;;;59.75;6.35;;;-0.10;1.00;;;;;;5072298;28;20208;-68
2021/01/25 01:52:16;;;;;;;62.67;5.97;;;-0.20;1.00;;;;;;5072150;28;20209;-68
2021/01/25 01:54:43;;;;;;;61.65;6.25;;;-0.30;1.00;;;;;;5072322;28;20243;-67
2021/01/25 01:57:10;;;;;;;60.60;5.80;;;-0.30;1.00;;;;;;5072588;28;20642;-67
2021/01/25 01:59:38;;;;;;;58.83;6.18;;;-0.40;1.00;;;;;;5073044;28;20209;-67
2021/01/25 02:02:04;;;;;;;60.28;5.90;;;-0.50;1.00;;;;;;5076273;28;20239;-67
2021/01/25 02:04:37;;;;;;;57.92;5.60;;;-0.50;1.00;;;;;;5076192;28;20221;-68
2021/01/25 02:07:06;;;;;;;58.80;5.93;;;-0.50;1.00;;;;;;5079900;28;20213;-67
2021/01/25 02:09:37;;;;;;;59.78;6.22;;;-0.60;1.00;;;;;;5088762;28;20212;-68
2021/01/25 02:12:05;;;;;;;58.90;6.10;;;-0.50;1.00;;;;;;5085791;28;20213;-68
2021/01/25 02:14:33;;;;;;;60.72;5.90;;;-0.50;1.00;;;;;;5072026;28;20239;-67
2021/01/25 02:17:01;;;;;;;59.85;5.95;;;-0.50;1.00;;;;;;5087075;28;20264;-67
2021/01/25 02:19:39;;;;;;;60.10;6.30;;;-0.50;1.00;;;;;;5087340;28;20264;-67
2021/01/25 02:22:16;;;;;;;60.60;6.13;;;-0.50;1.00;;;;;;5084502;28;20271;-67
2021/01/25 02:24:46;;;;;;;61.20;6.45;;;-0.50;1.00;;;;;;5088137;28;20278;-67
2021/01/25 02:27:35;;;;;;;59.90;6.10;;;-0.60;1.00;;;;;;5088087;28;20204;-67
2021/01/25 02:30:02;;;;;;;60.78;5.68;;;-0.50;1.00;;;;;;5087857;28;20200;-67
2021/01/25 02:32:32;;;;;;;59.90;6.55;;;-0.50;1.00;;;;;;5087483;28;20242;-67
2021/01/25 02:35:01;;;;;;;59.85;6.68;;;-0.40;1.00;;;;;;5087745;28;20248;-67
2021/01/25 02:37:28;;;;;;;60.47;6.22;;;-0.40;1.00;;;;;;5088665;28;20224;-67
2021/01/25 02:39:56;;;;;;;61.55;6.32;;;-0.40;1.00;;;;;;5088735;28;20215;-67
2021/01/25 02:42:23;;;;;;;61.25;7.20;;;-0.40;1.00;;;;;;5088851;28;20236;-67
2021/01/25 02:44:51;;;;;;;60.90;6.90;;;-0.40;1.00;;;;;;5087254;28;20289;-67
2021/01/25 02:47:19;;;;;;;62.78;6.97;;;-0.40;1.00;;;;;;5086956;28;20277;-67
2021/01/25 02:49:46;;;;;;;64.40;6.43;;;-0.40;1.00;;;;;;5085369;28;20227;-67
2021/01/25 02:52:14;;;;;;;60.38;6.40;;;-0.30;1.00;;;;;;5076549;28;20288;-67
2021/01/25 02:54:41;;;;;;;58.78;5.78;;;-0.30;1.00;;;;;;5071349;28;20221;-67
2021/01/25 02:57:08;;;;;;;58.33;5.78;;;-0.30;1.00;;;;;;5075578;28;20625;-67
2021/01/25 02:59:36;;;;;;;63.42;7.35;;;-0.30;1.00;;;;;;5075224;28;20561;-68
2021/01/25 03:02:05;;;;;;;60.83;6.40;;;-0.20;1.00;;;;;;5075324;28;20212;-68
2021/01/25 03:04:32;;;;;;;60.58;6.10;;;-0.20;1.00;;;;;;5075384;28;20643;-68
2021/01/25 03:06:59;;;;;;;61.53;6.65;;;-0.20;1.00;;;;;;5075310;28;20288;-67
2021/01/25 03:09:25;;;;;;;59.85;6.15;;;-0.20;1.00;;;;;;5075188;28;20292;-67
2021/01/25 03:11:52;;;;;;;57.78;5.00;;;-0.10;1.00;;;;;;5075270;28;20220;-68
2021/01/25 03:14:19;;;;;;;62.90;6.25;;;-0.10;1.00;;;;;;5074958;28;20239;-68
2021/01/25 03:16:45;;;;;;;59.78;6.63;;;-0.10;1.00;;;;;;5075117;28;20231;-68
2021/01/25 03:19:12;;;;;;;59.65;5.95;;;-0.10;1.00;;;;;;5075182;28;20235;-68
2021/01/25 03:21:45;;;;;;;60.50;6.00;;;-0.10;1.00;;;;;;5073555;28;20201;-68
2021/01/25 03:24:12;;;;;;;60.28;5.82;;;0.00;1.00;;;;;;5074701;28;20317;-67
2021/01/25 03:26:38;;;;;;;59.33;5.53;;;-0.10;1.00;;;;;;5074730;28;20213;-67
2021/01/25 03:29:04;;;;;;;61.40;7.15;;;0.00;1.00;;;;;;5075105;28;20681;-67
2021/01/25 03:31:30;;;;;;;66.85;7.00;;;0.00;1.00;;;;;;5075028;28;20216;-68
2021/01/25 03:33:57;;;;;;;60.10;6.10;;;-0.10;1.00;;;;;;5074716;28;20691;-68
2021/01/25 03:36:24;;;;;;;59.92;5.90;;;-0.10;1.00;;;;;;5074741;28;20237;-68
2021/01/25 03:38:50;;;;;;;59.65;5.68;;;-0.10;1.00;;;;;;5074726;28;20225;-68
2021/01/25 03:41:17;;;;;;;58.05;5.40;;;-0.10;1.00;;;;;;5074473;28;20736;-68
2021/01/25 03:43:43;;;;;;;59.35;6.00;;;-0.10;1.00;;;;;;5074383;28;20249;-68
2021/01/25 03:46:10;;;;;;;59.05;6.32;;;-0.10;1.00;;;;;;5074467;28;20215;-68
2021/01/25 03:48:36;;;;;;;58.92;5.55;;;-0.10;1.00;;;;;;5074626;28;20200;-68
2021/01/25 03:51:03;;;;;;;59.85;6.40;;;-0.20;1.00;;;;;;5074515;28;20217;-68
2021/01/25 03:53:30;;;;;;;59.67;6.28;;;-0.20;1.00;;;;;;5073025;28;20232;-68
2021/01/25 03:55:56;;;;;;;58.60;5.55;;;-0.20;1.00;;;;;;5074691;28;20205;-68
2021/01/25 03:58:22;;;;;;;59.65;6.00;;;-0.20;1.00;;;;;;5074594;28;20252;-68
2021/01/25 04:00:49;;;;;;;61.88;6.63;;;-0.20;1.00;;;;;;5074463;28;20210;-68
2021/01/25 04:03:15;;;;;;;58.78;6.03;;;-0.20;1.00;;;;;;5074048;28;20569;-68
2021/01/25 04:05:42;;;;;;;65.00;6.22;;;-0.20;1.00;;;;;;5074298;28;20204;-68
2021/01/25 04:08:09;;;;;;;59.08;6.93;;;-0.20;1.00;;;;;;5072911;28;20201;-68
2021/01/25 04:10:36;;;;;;;60.08;6.60;;;-0.20;1.00;;;;;;5073967;28;20201;-68
2021/01/25 04:13:02;;;;;;;60.75;7.18;;;-0.20;1.00;;;;;;5074159;28;20231;-68
2021/01/25 04:15:29;;;;;;;59.13;5.68;;;-0.20;1.00;;;;;;5073975;28;20216;-68
2021/01/25 04:17:55;;;;;;;60.05;6.63;;;-0.20;1.00;;;;;;5074040;28;20683;-68
2021/01/25 04:20:22;;;;;;;60.65;6.80;;;-0.20;1.00;;;;;;5073963;28;20589;-68
2021/01/25 04:22:48;;;;;;;61.22;6.57;;;-0.30;1.00;;;;;;5072371;28;20262;-68
2021/01/25 04:25:14;;;;;;;62.10;7.28;;;-0.30;1.00;;;;;;5073590;28;20215;-68
2021/01/25 04:27:42;;;;;;;65.55;7.50;;;-0.30;1.00;;;;;;5073887;28;20205;-68
2021/01/25 04:30:10;;;;;;;61.78;7.57;;;-0.30;1.00;;;;;;5073788;28;20205;-67
2021/01/25 04:32:37;;;;;;;66.75;9.00;;;;;;;;;;5073605;28;20212;-67
2021/01/25 04:35:05;;;;;;;63.85;6.88;;;-0.30;1.00;;;;;;5073766;28;20205;-68
2021/01/25 04:37:31;;;;;;;61.45;7.78;;;-0.30;1.00;;;;;;5073432;28;20212;-67
2021/01/25 04:39:58;;;;;;;61.10;7.30;;;-0.30;1.00;;;;;;5073779;28;20629;-67
2021/01/25 04:42:25;;;;;;;62.85;8.15;;;-0.30;1.00;;;;;;5073450;28;20284;-67
2021/01/25 04:44:52;;;;;;;62.50;7.55;;;-0.30;1.00;;;;;;5073363;28;20229;-67
2021/01/25 04:47:22;;;;;;;64.28;7.72;;;-0.30;1.00;;;;;;5073628;28;20216;-67
2021/01/25 04:49:50;;;;;;;67.07;8.70;;;-0.30;1.00;;;;;;5073374;28;20282;-67
2021/01/25 04:52:17;;;;;;;61.70;7.57;;;-0.30;1.00;;;;;;5073071;28;20205;-67
2021/01/25 04:54:46;;;;;;;63.45;8.45;;;-0.30;1.00;;;;;;5072359;28;20232;-67
2021/01/25 04:57:14;;;;;;;61.17;7.25;;;-0.30;1.00;;;;;;5073345;28;20207;-68
2021/01/25 04:59:41;;;;;;;61.67;8.75;;;-0.30;1.00;;;;;;5073136;28;20263;-68
2021/01/25 05:02:09;;;;;;;61.15;7.13;;;-0.20;1.00;;;;;;5073118;28;20211;-68
2021/01/25 05:04:35;;;;;;;65.90;8.70;;;-0.20;1.00;;;;;;5073161;28;20231;-68
2021/01/25 05:07:02;;;;;;;63.45;9.38;;;-0.20;1.00;;;;;;5072932;28;20669;-68
2021/01/25 05:09:28;;;;;;;63.63;7.45;;;-0.20;1.00;;;;;;5072873;28;20233;-68
2021/01/25 05:11:58;;;;;;;63.03;8.23;;;-0.20;1.00;;;;;;5073001;28;20227;-68
2021/01/25 05:14:24;;;;;;;62.90;8.40;;;-0.20;1.00;;;;;;5072836;28;20712;-68
2021/01/25 05:16:52;;;;;;;61.10;7.68;;;-0.20;1.00;;;;;;5072888;28;20205;-67
2021/01/25 05:19:19;;;;;;;62.08;8.10;;;-0.20;1.00;;;;;;5072082;28;20228;-67
2021/01/25 05:21:46;;;;;;;63.53;8.35;;;-0.20;1.00;;;;;;5072973;28;20213;-67
2021/01/25 05:24:13;;;;;;;61.30;7.82;;;-0.20;1.00;;;;;;5072094;28;20240;-67
2021/01/25 05:26:51;;;;;;;62.30;8.40;;;-0.20;1.00;;;;;;5071494;28;20205;-67
2021/01/25 05:29:24;;;;;;;63.20;9.23;;;-0.10;1.00;;;;;;5052666;28;20229;-67
2021/01/25 05:31:51;;;;;;;63.78;8.75;;;-0.10;1.00;;;;;;5052303;28;20582;-67
2021/01/25 05:34:19;;;;;;;62.85;7.82;;;-0.10;1.00;;;;;;5052414;28;20284;-66
2021/01/25 05:36:45;;;;;;;62.45;8.43;;;-0.10;1.00;;;;;;5052597;28;20235;-67
2021/01/25 05:39:14;;;;;;;61.72;7.65;;;-0.10;1.00;;;;;;5052417;28;20225;-68
2021/01/25 05:41:51;;;;;;;67.95;9.30;;;-0.10;1.00;;;;;;5052420;28;20206;-68
2021/01/25 05:44:17;;;;;;;68.15;9.38;;;-0.10;1.00;;;;;;5052011;28;20267;-68
2021/01/25 05:46:44;;;;;;;65.35;8.93;;;-0.10;1.00;;;;;;5052451;28;20205;-68
2021/01/25 05:49:10;;;;;;;66.18;9.80;;;-0.10;1.00;;;;;;5052370;28;20289;-68
2021/01/25 05:51:39;;;;;;;64.60;9.52;;;0.00;1.00;;;;;;5052291;28;20201;-68
2021/01/25 05:54:05;;;;;;;63.58;8.82;;;-0.10;1.00;;;;;;5051956;28;20705;-68
2021/01/25 05:56:32;;;;;;;69.85;10.65;;;-0.10;1.00;;;;;;5058599;28;20243;-68
2021/01/25 05:58:58;;;;;;;65.07;10.05;;;-0.10;1.00;;;;;;5071654;28;20220;-67
2021/01/25 06:01:25;;;;;;;66.18;10.02;;;-0.10;1.00;;;;;;5071923;28;20707;-67
2021/01/25 06:03:53;;;;;;;65.05;9.93;;;-0.10;1.00;;;;;;5071606;28;20221;-67
2021/01/25 06:06:27;;;;;;;69.05;9.73;;;-0.10;1.00;;;;;;5071997;28;20200;-67
2021/01/25 06:09:06;;;;;;;63.67;9.73;;;-0.10;1.00;;;;;;5071865;28;20201;-67
2021/01/25 06:11:33;;;;;;;64.30;10.30;;;-0.10;1.00;;;;;;5072102;28;20208;-67
2021/01/25 06:14:02;;;;;;;65.10;9.77;;;-0.10;1.00;;;;;;5071625;28;20728;-67
2021/01/25 06:16:32;;;;;;;69.63;10.63;;;-0.10;1.00;;;;;;5071752;28;20292;-67
2021/01/25 06:19:01;;;;;;;67.45;10.30;;;-0.10;1.00;;;;;;5071743;28;20248;-67
2021/01/25 06:21:32;;;;;;;66.88;10.55;;;-0.10;1.00;;;;;;5071674;28;20297;-67
2021/01/25 06:24:01;;;;;;;66.63;10.45;;;-0.10;1.00;;;;;;5071273;28;20638;-68
2021/01/25 06:26:30;;;;;;;65.93;10.25;;;-0.10;1.00;;;;;;5071628;28;20212;-67
2021/01/25 06:29:01;;;;;;;74.65;11.52;;;-0.10;1.00;;;;;;5070441;28;20201;-67
2021/01/25 06:31:27;;;;;;;65.22;10.70;;;-0.10;1.00;;;;;;5070686;28;20293;-67
2021/01/25 06:33:54;;;;;;;66.00;11.52;;;-0.20;1.00;;;;;;5071354;28;20232;-67
2021/01/25 06:36:21;;;;;;;76.15;12.30;;;-0.10;1.00;;;;;;5071311;28;20238;-68
2021/01/25 06:38:49;;;;;;;72.05;10.95;;;-0.10;1.00;;;;;;5071612;28;20228;-68
2021/01/25 06:41:17;;;;;;;70.00;12.18;;;-0.10;1.00;;;;;;5071403;28;20216;-67
2021/01/25 06:43:46;;;;;;;63.65;10.50;;;-0.10;1.00;;;;;;5070854;28;20253;-67
2021/01/25 06:46:17;;;;;;;70.97;12.85;;;-0.10;1.00;;;;;;5071237;28;20252;-67
2021/01/25 06:48:48;;;;;;;76.82;14.63;;;-0.10;1.00;;;;;;5071349;28;20262;-67
2021/01/25 06:51:17;;;;;;;74.18;13.80;;;-0.10;1.00;;;;;;5071541;28;20201;-67
2021/01/25 06:53:43;;;;;;;70.88;12.00;;;-0.10;1.00;;;;;;5071164;28;20225;-67
2021/01/25 06:56:10;;;;;;;67.97;12.48;;;-0.10;1.00;;;;;;5071465;28;20205;-67
2021/01/25 06:58:38;;;;;;;70.85;13.27;;;-0.20;1.00;;;;;;5069827;28;20260;-67
2021/01/25 07:01:08;;;;;;;68.30;12.02;;;-0.20;1.00;;;;;;5071064;28;20275;-67
2021/01/25 07:03:44;;;;;;;73.57;13.30;;;-0.20;1.00;;;;;;5070974;28;20228;-67
2021/01/25 07:06:14;;;;;;;71.00;12.43;;;-0.20;1.00;;;;;;5071320;28;20216;-67
2021/01/25 07:08:51;;;;;;;68.65;13.18;;;-0.20;1.00;;;;;;5071252;28;20200;-67
2021/01/25 07:11:17;;;;;;;70.50;12.63;;;-0.10;1.00;;;;;;5071212;28;20295;-68
2021/01/25 07:13:45;;;;;;;70.20;13.13;;;-0.20;1.00;;;;;;5070847;28;20316;-68
2021/01/25 07:16:11;;;;;;;70.85;13.20;;;-0.20;1.00;;;;;;5071320;28;20587;-68
2021/01/25 07:18:42;;;;;;;74.43;13.77;;;-0.10;1.00;;;;;;5071034;28;20244;-68
2021/01/25 07:21:11;;;;;;;74.82;13.82;;;-0.10;1.00;;;;;;5070916;28;20216;-68
2021/01/25 07:23:40;;;;;;;73.07;13.65;;;-0.10;1.00;;;;;;5070823;28;20247;-68
2021/01/25 07:26:07;;;;;;;76.55;14.68;;;-0.10;1.00;;;;;;5070938;28;20434;-68
2021/01/25 07:28:34;;;;;;;74.53;14.43;;;-0.10;1.00;;;;;;5070805;28;20205;-68
2021/01/25 07:31:01;;;;;;;78.90;15.00;;;0.00;1.00;;;;;;5069866;28;20205;-68
2021/01/25 07:33:28;;;;;;;72.55;13.63;;;0.00;1.00;;;;;;5070480;28;20233;-68
2021/01/25 07:35:55;;;;;;;77.53;15.55;;;0.00;1.00;;;;;;5071101;28;20278;-68
2021/01/25 07:38:22;;;;;;;75.93;16.27;;;0.10;1.00;;;;;;5070853;28;20708;-68
2021/01/25 07:40:49;;;;;;;76.60;15.52;;;0.10;1.00;;;;;;5071011;28;20212;-68
2021/01/25 07:43:18;;;;;;;73.70;15.18;;;0.10;1.00;;;;;;5074456;28;20235;-68
2021/01/25 07:45:46;;;;;;;79.35;16.35;;;0.10;1.00;;;;;;5074341;28;20673;-68
2021/01/25 07:48:14;;;;;;;78.38;15.95;;;0.10;1.00;;;;;;5074657;28;20212;-68
2021/01/25 07:50:41;;;;;;;76.05;16.35;;;0.20;1.00;;;;;;5074719;28;20205;-68
2021/01/25 07:53:08;;;;;;;76.75;17.40;;;0.20;1.00;;;;;;5074369;28;20224;-68
2021/01/25 07:55:37;;;;;;;79.65;17.17;;;0.20;1.00;;;;;;5074220;28;20205;-68
2021/01/25 07:58:08;;;;;;;79.00;18.17;;;0.20;1.00;;;;;;5074357;28;20434;-68
2021/01/25 08:00:37;;;;;;;80.95;16.65;;;0.30;1.00;;;;;;5072025;28;20314;-68
2021/01/25 08:03:09;;;;;;;76.72;17.10;;;0.40;1.00;;;;;;5072697;28;20229;-68
2021/01/25 08:05:38;;;;;;;75.57;15.10;;;0.40;1.00;;;;;;5074131;28;20212;-68
2021/01/25 08:08:07;;;;;;;77.20;17.13;;;0.50;1.00;;;;;;5074120;28;20201;-68
2021/01/25 08:10:34;;;;;;;79.28;16.65;;;0.50;1.00;;;;;;5074304;28;20205;-68
2021/01/25 08:13:01;;;;;;;82.63;17.55;;;0.60;1.00;;;;;;5074145;28;20783;-68
2021/01/25 08:15:33;;;;;;;80.30;17.60;;;0.60;1.00;;;;;;5074157;28;20201;-68
2021/01/25 08:18:03;;;;;;;81.93;17.45;;;0.60;1.00;;;;;;5074142;28;20266;-68
2021/01/25 08:20:34;;;;;;;82.60;17.10;;;0.60;1.00;;;;;;5073850;28;20295;-68
2021/01/25 08:23:08;;;;;;;74.75;16.08;;;0.60;1.00;;;;;;5073978;28;20319;-68
2021/01/25 08:25:35;;;;;;;81.18;17.98;;;0.70;1.00;;;;;;5073741;28;20768;-68
2021/01/25 08:28:05;;;;;;;75.75;17.73;;;0.70;1.00;;;;;;5074035;28;20223;-68
2021/01/25 08:30:36;;;;;;;79.00;18.63;;;0.70;1.00;;;;;;5074164;28;20251;-68
2021/01/25 08:33:03;;;;;;;79.65;17.90;;;0.70;1.00;;;;;;5072139;28;20608;-68
2021/01/25 08:35:34;;;;;;;82.10;17.52;;;0.70;1.00;;;;;;5073668;28;20225;-68
2021/01/25 08:38:10;;;;;;;75.03;16.00;;;0.60;1.00;;;;;;5073898;28;20261;-68
2021/01/25 08:40:38;;;;;;;80.40;18.10;;;0.60;1.00;;;;;;5073596;28;20200;-68
2021/01/25 08:43:05;;;;;;;82.75;18.90;;;0.70;1.00;;;;;;5073371;28;20281;-68
2021/01/25 08:45:33;;;;;;;76.35;17.30;;;0.70;1.00;;;;;;5073173;28;20574;-68
2021/01/25 08:48:06;;;;;;;79.03;17.80;;;0.70;1.00;;;;;;5073636;28;20205;-68
2021/01/25 08:50:32;;;;;;;72.43;15.80;;;0.70;1.00;;;;;;5073838;28;20244;-68
2021/01/25 08:53:01;;;;;;;79.78;17.92;;;0.70;1.00;;;;;;5072605;28;20225;-68
2021/01/25 08:55:35;;;;;;;75.15;18.23;;;0.70;1.00;;;;;;5073649;28;20247;-68
2021/01/25 08:58:02;;;;;;;77.47;18.92;;;0.70;1.00;;;;;;5073081;28;20216;-68
2021/01/25 09:00:34;;;;;;;76.35;17.42;;;0.70;1.00;;;;;;5073496;28;20231;-68
2021/01/25 09:03:04;;;;;;;76.63;17.63;;;0.70;1.00;;;;;;5072025;28;20221;-68
2021/01/25 09:05:31;;;;;;;74.90;18.73;;;0.70;1.00;;;;;;5072762;28;20292;-68
2021/01/25 09:07:58;;;;;;;79.70;19.30;;;0.80;1.00;;;;;;5073315;28;20227;-68
2021/01/25 09:10:25;;;;;;;76.47;18.33;;;0.80;1.00;;;;;;5072919;28;20245;-68
2021/01/25 09:12:51;;;;;;;80.70;18.02;;;0.90;1.00;;;;;;5073190;28;20622;-68
2021/01/25 09:15:18;;;;;;;83.72;19.35;;;0.90;1.00;;;;;;5073157;28;20205;-68
2021/01/25 09:17:46;;;;;;;77.13;18.52;;;0.90;1.00;;;;;;5072946;28;20294;-67
2021/01/25 09:20:13;;;;;;;77.00;18.38;;;0.90;1.00;;;;;;5072884;28;20260;-67
2021/01/25 09:22:40;;;;;;;84.05;20.33;;;0.90;1.00;;;;;;5072699;28;20205;-67
2021/01/25 09:25:08;;;;;;;86.53;23.60;;;0.90;1.00;;;;;;5072492;28;20204;-68
2021/01/25 09:27:35;;;;;;;87.25;19.45;;;0.90;1.00;;;;;;5072467;28;20212;-68
2021/01/25 09:30:01;;;;;;;77.93;18.77;;;0.90;1.00;;;;;;5072739;28;20225;-68
2021/01/25 09:32:28;;;;;;;78.70;18.13;;;0.90;1.00;;;;;;5072350;28;20733;-68
2021/01/25 09:34:55;;;;;;;80.78;17.75;;;0.90;1.00;;;;;;5071335;28;20320;-68
2021/01/25 09:37:21;;;;;;;88.00;18.63;;;0.90;1.00;;;;;;5072426;28;20697;-68
2021/01/25 09:39:48;;;;;;;78.20;17.85;;;0.90;1.00;;;;;;5072168;28;20264;-68
2021/01/25 09:42:15;;;;;;;80.00;18.95;;;0.90;1.00;;;;;;5072317;28;20209;-68
2021/01/25 09:44:42;;;;;;;77.90;18.85;;;1.00;1.00;;;;;;5072228;28;20232;-68
2021/01/25 09:47:08;;;;;;;81.80;17.67;;;1.00;1.00;;;;;;5072152;28;20205;-68
2021/01/25 09:49:34;;;;;;;85.20;19.50;;;1.00;1.00;;;;;;5072305;28;20200;-68
2021/01/25 09:52:02;;;;;;;81.40;20.08;;;1.00;1.00;;;;;;5071972;28;20255;-68
2021/01/25 09:54:28;;;;;;;79.88;18.58;;;1.00;1.00;;;;;;5072418;28;20651;-68
2021/01/25 09:56:54;;;;;;;84.03;18.60;;;1.00;1.00;;;;;;5072278;28;20291;-68
2021/01/25 09:59:21;;;;;;;75.95;16.52;;;1.10;1.00;;;;;;5072076;28;20224;-69
2021/01/25 10:01:47;;;;;;;80.70;18.48;;;1.10;1.00;;;;;;5072460;28;20219;-68
2021/01/25 10:04:14;;;;;;;79.00;19.80;;;1.10;1.00;;;;;;5071618;28;20281;-69
2021/01/25 10:06:40;;;;;;;87.60;19.70;;;1.10;1.00;;;;;;5070201;28;20201;-68
2021/01/25 10:09:07;;;;;;;80.60;18.63;;;1.10;1.00;;;;;;5072028;28;20290;-68
2021/01/25 10:11:35;;;;;;;83.05;18.70;;;1.10;1.00;;;;;;5071843;28;20240;-68
2021/01/25 10:14:01;;;;;;;76.80;18.40;;;1.20;1.20;;;;;;5071688;28;20236;-68
2021/01/25 10:16:27;;;;;;;82.53;19.70;;;1.20;1.10;;;;;;5071943;28;20650;-68
2021/01/25 10:18:54;;;;;;;84.05;22.33;;;1.20;1.40;;;;;;5071575;28;20262;-68
2021/01/25 10:21:20;;;;;;;84.80;21.80;;;1.30;2.30;;;;;;5071662;28;20208;-68
2021/01/25 10:23:48;;;;;;;80.53;21.42;;;1.20;2.60;;;;;;5071775;28;20555;-68
2021/01/25 10:26:15;;;;;;;85.88;20.45;;;1.30;3.40;;;;;;5071492;28;20290;-68
2021/01/25 10:28:42;;;;;;;85.55;21.80;;;1.40;5.10;;;;;;5071260;28;20197;-69
2021/01/25 10:31:08;;;;;;;79.05;19.60;;;1.40;6.20;;;;;;5071744;28;20205;-68
2021/01/25 10:33:34;;;;;;;82.35;19.52;;;1.50;6.70;;;;;;5071423;28;20715;-69
2021/01/25 10:36:01;;;;;;;83.03;19.05;;;1.60;7.00;;;;;;5070974;28;20200;-69
2021/01/25 10:38:27;;;;;;;78.88;20.30;;;1.60;7.00;;;;;;5071621;28;20225;-68
2021/01/25 10:40:54;;;;;;;83.15;20.48;;;1.70;6.90;;;;;;5070312;28;20212;-68
2021/01/25 10:43:21;;;;;;;82.30;19.02;;;1.70;6.30;;;;;;5071341;28;20229;-68
2021/01/25 10:45:47;;;;;;;82.00;20.48;;;1.70;5.60;;;;;;5071478;28;20209;-69
2021/01/25 10:48:14;;;;;;;79.93;20.25;;;1.80;4.40;;;;;;5071288;28;20205;-69
2021/01/25 10:50:40;;;;;;;88.20;20.05;;;1.80;3.40;;;;;;5071880;28;20213;-69
2021/01/25 10:53:06;;;;;;;81.70;19.42;;;1.80;3.90;;;;;;5071652;28;20254;-69
2021/01/25 10:55:33;;;;;;;83.65;20.15;;;1.90;4.20;;;;;;5071652;28;20209;-69
2021/01/25 10:57:59;;;;;;;77.90;18.90;;;2.00;4.20;;;;;;5071514;28;20296;-69
2021/01/25 11:00:28;;;;;;;82.00;21.98;;;2.10;4.20;;;;;;5071598;28;20578;-69
2021/01/25 11:02:54;;;;;;;80.40;19.48;;;2.40;7.90;;;;;;5071149;28;20204;-68
2021/01/25 11:05:25;;;;;;;85.95;21.17;;;2.30;4.30;;;;;;5071681;28;20299;-68
2021/01/25 11:07:51;;;;;;;76.70;19.33;;;2.40;3.20;;;;;;5071379;28;20204;-68
2021/01/25 11:10:20;;;;;;;78.72;18.77;;;2.50;1.00;;;;;;5071364;28;20209;-68
2021/01/25 11:12:48;;;;;;;75.20;17.58;;;2.60;1.00;;;;;;5070994;28;20240;-68
2021/01/25 11:15:15;;;;;;;76.43;17.15;;;2.60;1.00;;;;;;5071257;28;20205;-68
2021/01/25 11:17:42;;;;;;;74.60;18.17;;;2.70;1.00;;;;;;5073175;28;20679;-68
2021/01/25 11:20:09;;;;;;;82.53;18.83;;;2.70;1.00;;;;;;5074722;28;20228;-68
2021/01/25 11:22:35;;;;;;;80.80;19.13;;;2.70;1.00;;;;;;5075037;28;20334;-68
2021/01/25 11:25:02;;;;;;;74.97;16.67;;;2.70;1.00;;;;;;5074995;28;20274;-68
2021/01/25 11:27:28;;;;;;;79.47;17.33;;;2.70;1.00;;;;;;5074983;28;20207;-68
2021/01/25 11:29:54;;;;;;;76.53;17.98;;;2.70;1.00;;;;;;5074954;28;20197;-68
2021/01/25 11:32:21;;;;;;;73.78;15.40;;;2.70;1.00;;;;;;5074702;28;20216;-68
2021/01/25 11:34:48;;;;;;;74.38;16.77;;;2.70;1.00;;;;;;5074752;28;20660;-68
2021/01/25 11:37:15;;;;;;;72.78;14.40;;;2.70;1.00;;;;;;5074636;28;20216;-68
2021/01/25 11:39:43;;;;;;;75.78;17.33;;;2.70;1.00;;;;;;5074736;28;20229;-68
2021/01/25 11:42:10;;;;;;;78.82;16.98;;;2.70;1.00;;;;;;5074664;28;20200;-68
2021/01/25 11:44:37;;;;;;;75.65;16.58;;;2.70;1.00;;;;;;5074434;28;20228;-68
2021/01/25 11:47:04;;;;;;;82.20;16.95;;;2.70;1.00;;;;;;5074441;28;20223;-68
2021/01/25 11:49:30;;;;;;;74.25;16.90;;;2.60;1.00;;;;;;5073141;28;20673;-68
2021/01/25 11:51:58;;;;;;;76.10;17.13;;;2.60;1.00;;;;;;5074307;28;20212;-68
2021/01/25 11:54:24;;;;;;;91.30;24.50;;;2.60;1.00;;;;;;5074463;28;20571;-68
2021/01/25 11:56:50;;;;;;;70.82;15.18;;;2.70;1.00;;;;;;5074472;28;20212;-68
2021/01/25 11:59:19;;;;;;;70.47;13.55;;;2.80;1.00;;;;;;5074282;28;20220;-68
2021/01/25 12:01:46;;;;;;;67.95;12.70;;;2.90;1.00;;;;;;5074726;28;20228;-68
2021/01/25 12:04:12;;;;;;;67.95;12.02;;;3.10;1.00;;;;;;5074299;28;20240;-68
2021/01/25 12:06:38;;;;;;;65.57;10.93;;;3.20;1.00;;;;;;5074317;28;20201;-68
2021/01/25 12:09:06;;;;;;;64.68;8.13;;;3.30;1.00;;;;;;5074024;28;20583;-68
2021/01/25 12:11:33;;;;;;;65.63;8.52;;;3.40;1.00;;;;;;5073927;28;20220;-68
2021/01/25 12:13:59;;;;;;;65.63;9.63;;;3.50;1.00;;;;;;5073671;28;20231;-68
2021/01/25 12:16:27;;;;;;;61.72;7.97;;;3.60;1.00;;;;;;5074278;28;20298;-68
2021/01/25 12:18:53;;;;;;;61.30;7.75;;;3.70;1.00;;;;;;5074020;28;20327;-68
2021/01/25 12:21:19;;;;;;;61.40;7.55;;;3.80;1.00;;;;;;5071893;28;20251;-68
2021/01/25 12:23:46;;;;;;;60.08;5.70;;;3.80;1.00;;;;;;5073587;28;20225;-68
2021/01/25 12:26:13;;;;;;;60.25;6.18;;;3.80;1.00;;;;;;5073896;28;20234;-69
2021/01/25 12:28:39;;;;;;;60.00;6.00;;;3.80;1.00;;;;;;5072783;28;20212;-69
2021/01/25 12:31:07;;;;;;;59.58;5.20;;;3.90;1.00;;;;;;5074031;28;20262;-69
2021/01/25 12:33:34;;;;;;;57.35;3.95;;;3.90;1.00;;;;;;5073337;28;20268;-68
2021/01/25 12:36:01;;;;;;;58.13;3.88;;;3.90;1.00;;;;;;5073678;28;20293;-68
2021/01/25 12:38:27;;;;;;;61.97;4.10;;;3.90;1.00;;;;;;5073691;28;20260;-68
2021/01/25 12:40:54;;;;;;;56.88;3.60;;;4.00;1.00;;;;;;5073597;28;20205;-68
2021/01/25 12:43:22;;;;;;;58.10;3.42;;;4.10;1.00;;;;;;5073295;28;20232;-68
2021/01/25 12:45:48;;;;;;;56.05;3.10;;;4.10;1.00;;;;;;5072713;28;20220;-68
2021/01/25 12:48:14;;;;;;;57.33;3.25;;;4.20;1.00;;;;;;5071530;28;20296;-68